createdAt,value
2018-11-05T00:02:26.054Z,23.17
2018-11-05T00:04:54.487Z,22.57
2018-11-05T00:07:22.847Z,23.33
2018-11-05T00:09:51.168Z,23.43
2018-11-05T00:12:19.904Z,23.20
2018-11-05T00:14:48.181Z,22.17
2018-11-05T00:17:16.929Z,23.77
2018-11-05T00:19:45.284Z,23.90
2018-11-05T00:22:13.630Z,23.77
2018-11-05T00:24:42.044Z,24.93
2018-11-05T00:27:10.352Z,28.53
2018-11-05T00:29:39.910Z,25.30
2018-11-05T00:32:08.407Z,24.63
2018-11-05T00:34:36.680Z,27.43
2018-11-05T00:37:05.534Z,26.63
2018-11-05T00:39:33.914Z,24.40
2018-11-05T00:42:02.396Z,26.83
2018-11-05T00:44:30.690Z,27.10
2018-11-05T00:46:59.057Z,25.73
2018-11-05T00:49:27.308Z,23.83
2018-11-05T00:51:55.580Z,26.23
2018-11-05T00:54:23.827Z,29.20
2018-11-05T00:56:52.432Z,28.53
2018-11-05T00:59:20.718Z,27.47
2018-11-05T01:01:48.959Z,25.97
2018-11-05T01:04:17.377Z,30.23
2018-11-05T01:06:46.496Z,29.27
2018-11-05T01:09:14.852Z,28.90
2018-11-05T01:11:43.169Z,30.13
2018-11-05T01:14:11.480Z,32.03
2018-11-05T01:16:39.822Z,35.37
2018-11-05T01:19:08.120Z,30.20
2018-11-05T01:21:36.710Z,30.87
2018-11-05T01:24:05.370Z,30.20
2018-11-05T01:26:33.762Z,36.13
2018-11-05T01:29:02.133Z,29.03
2018-11-05T01:31:30.396Z,25.63
2018-11-05T01:33:58.759Z,33.40
2018-11-05T01:36:27.011Z,33.83
2018-11-05T01:38:55.455Z,29.70
2018-11-05T01:41:23.812Z,34.40
2018-11-05T01:43:52.253Z,30.33
2018-11-05T01:46:20.492Z,28.53
2018-11-05T01:48:48.807Z,31.27
2018-11-05T01:51:17.083Z,29.57
2018-11-05T01:53:45.509Z,30.30
2018-11-05T01:56:13.798Z,30.97
2018-11-05T01:58:42.085Z,30.07
2018-11-05T02:01:10.354Z,27.40
2018-11-05T02:03:38.680Z,24.13
2018-11-05T02:06:06.949Z,29.70
2018-11-05T02:08:35.211Z,30.57
2018-11-05T02:11:03.511Z,31.20
2018-11-05T02:13:31.855Z,29.73
2018-11-05T02:16:00.062Z,34.17
2018-11-05T02:18:28.327Z,32.20
2018-11-05T02:20:56.612Z,33.90
2018-11-05T02:23:24.906Z,35.30
2018-11-05T02:25:53.230Z,30.67
2018-11-05T02:28:21.497Z,32.00
2018-11-05T02:30:49.802Z,28.77
2018-11-05T02:33:18.088Z,32.80
2018-11-05T02:35:46.392Z,30.13
2018-11-05T02:38:14.786Z,32.03
2018-11-05T02:40:43.088Z,30.43
2018-11-05T02:43:11.419Z,33.13
2018-11-05T02:45:39.719Z,32.17
2018-11-05T02:48:08.571Z,29.97
2018-11-05T02:50:36.840Z,27.97
2018-11-05T02:53:05.517Z,31.03
2018-11-05T02:55:33.783Z,30.93
2018-11-05T02:58:02.035Z,29.00
2018-11-05T03:00:30.367Z,31.33
2018-11-05T03:02:58.744Z,28.50
2018-11-05T03:05:27.041Z,26.83
2018-11-05T03:07:56.078Z,30.37
2018-11-05T03:10:24.342Z,28.20
2018-11-05T03:12:52.673Z,25.63
2018-11-05T03:15:21.076Z,26.40
2018-11-05T03:17:49.347Z,27.20
2018-11-05T03:20:17.747Z,26.13
2018-11-05T03:22:46.332Z,31.47
2018-11-05T03:25:14.645Z,25.83
2018-11-05T03:27:42.935Z,28.27
2018-11-05T03:30:14.088Z,25.47
2018-11-05T03:32:42.733Z,28.17
2018-11-05T03:35:12.106Z,29.40
2018-11-05T03:37:41.443Z,27.03
2018-11-05T03:40:10.599Z,23.83
2018-11-05T03:42:39.289Z,27.13
2018-11-05T03:45:08.890Z,26.37
2018-11-05T03:47:37.165Z,27.40
2018-11-05T03:50:07.912Z,27.00
2018-11-05T03:52:36.379Z,26.17
2018-11-05T03:55:05.028Z,23.87
2018-11-05T03:57:33.752Z,31.57
2018-11-05T04:00:02.141Z,28.20
2018-11-05T04:02:30.432Z,32.73
2018-11-05T04:04:58.696Z,32.07
2018-11-05T04:07:27.042Z,35.23
2018-11-05T04:09:55.512Z,26.97
2018-11-05T04:12:23.813Z,26.00
2018-11-05T04:14:52.085Z,33.67
2018-11-05T04:17:20.383Z,32.90
2018-11-05T04:19:48.748Z,29.10
2018-11-05T04:22:17.105Z,32.67
2018-11-05T04:24:45.423Z,32.23
2018-11-05T04:27:13.720Z,32.03
2018-11-05T04:29:42.023Z,30.87
2018-11-05T04:32:10.435Z,32.30
2018-11-05T04:34:38.788Z,31.23
2018-11-05T04:37:07.236Z,31.90
2018-11-05T04:39:35.524Z,36.80
2018-11-05T04:42:03.817Z,35.10
2018-11-05T04:44:32.052Z,33.93
2018-11-05T04:47:00.324Z,36.37
2018-11-05T04:49:28.560Z,31.20
2018-11-05T04:51:56.848Z,31.50
2018-11-05T04:54:25.120Z,32.57
2018-11-05T04:56:53.399Z,32.13
2018-11-05T04:59:21.684Z,35.70
2018-11-05T05:01:50.128Z,35.70
2018-11-05T05:04:18.423Z,32.40
2018-11-05T05:06:46.836Z,34.60
2018-11-05T05:09:15.117Z,31.87
2018-11-05T05:11:43.430Z,37.00
2018-11-05T05:14:11.704Z,33.17
2018-11-05T05:16:40.316Z,39.30
2018-11-05T05:19:08.596Z,36.70
2018-11-05T05:21:37.054Z,34.93
2018-11-05T05:24:05.568Z,37.17
2018-11-05T05:26:33.932Z,34.60
2018-11-05T05:29:02.360Z,40.53
2018-11-05T05:31:30.808Z,30.80
2018-11-05T05:33:59.105Z,26.83
2018-11-05T05:36:27.356Z,27.50
2018-11-05T05:38:55.845Z,34.40
2018-11-05T05:41:24.181Z,28.10
2018-11-05T05:43:52.368Z,27.07
2018-11-05T05:46:20.767Z,26.60
2018-11-05T05:48:49.030Z,26.07
2018-11-05T05:51:17.448Z,27.73
2018-11-05T05:53:45.743Z,25.70
2018-11-05T05:56:13.984Z,20.47
2018-11-05T05:58:42.268Z,43.23
2018-11-05T06:01:10.707Z,25.33
2018-11-05T06:03:38.994Z,20.93
2018-11-05T06:06:07.761Z,23.13
2018-11-05T06:08:36.857Z,22.33
2018-11-05T06:11:05.413Z,24.13
2018-11-05T06:13:33.867Z,49.97
2018-11-05T06:16:02.298Z,27.67
2018-11-05T06:18:30.484Z,27.93
2018-11-05T06:20:58.763Z,32.67
2018-11-05T06:23:27.099Z,28.07
2018-11-05T06:25:55.478Z,37.10
2018-11-05T06:28:23.891Z,29.17
2018-11-05T06:30:52.177Z,27.97
2018-11-05T06:33:20.455Z,27.50
2018-11-05T06:35:48.795Z,26.33
2018-11-05T06:38:17.175Z,25.23
2018-11-05T06:40:45.763Z,27.67
2018-11-05T06:43:14.096Z,26.87
2018-11-05T06:45:42.390Z,27.13
2018-11-05T06:48:10.693Z,24.27
2018-11-05T06:50:38.937Z,27.77
2018-11-05T06:53:07.297Z,25.93
2018-11-05T06:55:35.682Z,24.00
2018-11-05T06:58:03.985Z,24.63
2018-11-05T07:00:32.326Z,24.70
2018-11-05T07:03:00.624Z,22.17
2018-11-05T07:05:30.202Z,24.33
2018-11-05T07:07:58.499Z,21.40
2018-11-05T07:10:27.532Z,23.10
2018-11-05T07:12:55.753Z,20.90
2018-11-05T07:15:24.049Z,22.17
2018-11-05T07:17:52.391Z,19.37
2018-11-05T07:20:21.673Z,20.13
2018-11-05T07:22:50.946Z,20.80
2018-11-05T07:25:19.316Z,22.67
2018-11-05T07:27:47.636Z,21.33
2018-11-05T07:30:18.365Z,20.37
2018-11-05T07:32:47.345Z,20.03
2018-11-05T07:35:16.030Z,19.40
2018-11-05T07:37:44.502Z,21.13
2018-11-05T07:40:14.245Z,20.30
2018-11-05T07:42:42.690Z,20.00
2018-11-05T07:45:19.678Z,20.03
2018-11-05T07:47:48.359Z,19.77
2018-11-05T07:50:17.564Z,20.40
2018-11-05T07:52:45.857Z,18.73
2018-11-05T07:55:15.348Z,16.93
2018-11-05T07:57:44.818Z,18.67
2018-11-05T08:00:22.078Z,21.50
2018-11-05T08:02:51.935Z,22.77
2018-11-05T08:05:21.157Z,21.00
2018-11-05T08:07:49.912Z,21.80
2018-11-05T08:10:18.196Z,20.87
2018-11-05T08:12:46.738Z,20.17
2018-11-05T08:15:16.510Z,19.97
2018-11-05T08:17:46.087Z,21.63
2018-11-05T08:20:14.443Z,20.13
2018-11-05T08:22:42.789Z,19.83
2018-11-05T08:25:12.049Z,17.93
2018-11-05T08:27:40.468Z,20.00
2018-11-05T08:30:15.340Z,20.63
2018-11-05T08:32:43.712Z,17.53
2018-11-05T08:35:12.612Z,16.23
2018-11-05T08:37:41.896Z,14.97
2018-11-05T08:40:16.415Z,16.57
2018-11-05T08:42:45.380Z,16.33
2018-11-05T08:45:15.108Z,18.83
2018-11-05T08:47:43.557Z,18.23
2018-11-05T08:50:14.318Z,17.07
2018-11-05T08:52:42.612Z,19.20
2018-11-05T08:55:14.307Z,20.80
2018-11-05T08:57:43.220Z,23.33
2018-11-05T09:00:15.760Z,19.67
2018-11-05T09:02:44.964Z,20.43
2018-11-05T09:05:13.588Z,24.70
2018-11-05T09:07:42.061Z,17.37
2018-11-05T09:10:10.513Z,21.77
2018-11-05T09:12:38.812Z,20.30
2018-11-05T09:15:08.791Z,17.97
2018-11-05T09:17:37.211Z,20.03
2018-11-05T09:20:06.909Z,19.00
2018-11-05T09:22:35.183Z,21.67
2018-11-05T09:25:03.466Z,22.23
2018-11-05T09:27:31.772Z,20.43
2018-11-05T09:30:00.098Z,20.13
2018-11-05T09:32:28.364Z,18.97
2018-11-05T09:34:56.753Z,16.50
2018-11-05T09:37:25.039Z,18.23
2018-11-05T09:39:53.320Z,17.23
2018-11-05T09:42:21.731Z,20.27
2018-11-05T09:44:50.160Z,18.87
2018-11-05T09:47:18.496Z,18.87
2018-11-05T09:49:46.847Z,23.27
2018-11-05T09:52:15.126Z,20.70
2018-11-05T09:54:43.409Z,18.93
2018-11-05T09:57:11.678Z,16.77
2018-11-05T09:59:39.976Z,17.57
2018-11-05T10:02:08.278Z,17.27
2018-11-05T10:04:36.837Z,16.33
2018-11-05T10:07:05.038Z,15.73
2018-11-05T10:09:33.477Z,16.83
2018-11-05T10:12:01.731Z,15.77
2018-11-05T10:14:30.060Z,16.10
2018-11-05T10:16:58.312Z,17.93
2018-11-05T10:19:26.607Z,16.63
2018-11-05T10:21:54.959Z,17.07
2018-11-05T10:24:23.420Z,19.37
2018-11-05T10:26:51.751Z,17.10
2018-11-05T10:29:20.248Z,19.27
2018-11-05T10:31:48.537Z,17.60
2018-11-05T10:34:16.904Z,17.50
2018-11-05T10:36:45.186Z,17.57
2018-11-05T10:39:13.584Z,18.13
2018-11-05T10:41:41.976Z,21.73
2018-11-05T10:44:10.367Z,21.73
2018-11-05T10:46:38.644Z,20.90
2018-11-05T10:49:06.998Z,21.00
2018-11-05T10:51:35.317Z,25.60
2018-11-05T10:54:03.636Z,23.43
2018-11-05T10:56:32.064Z,23.60
2018-11-05T10:59:00.530Z,22.40
2018-11-05T11:01:34.063Z,19.30
2018-11-05T11:04:07.563Z,19.87
2018-11-05T11:06:35.820Z,17.93
2018-11-05T11:09:05.045Z,16.60
2018-11-05T11:11:33.399Z,17.60
2018-11-05T11:14:01.696Z,19.97
2018-11-05T11:16:29.971Z,14.80
2018-11-05T11:18:58.357Z,14.53
2018-11-05T11:21:26.673Z,16.83
2018-11-05T11:23:55.098Z,15.90
2018-11-05T11:26:23.429Z,17.20
2018-11-05T11:28:51.901Z,15.37
2018-11-05T11:31:20.166Z,15.37
2018-11-05T11:33:48.419Z,17.23
2018-11-05T11:36:16.698Z,14.53
2018-11-05T11:38:44.977Z,18.10
2018-11-05T11:41:13.350Z,15.73
2018-11-05T11:43:41.637Z,16.53
2018-11-05T11:46:09.960Z,19.57
2018-11-05T11:48:38.467Z,15.63
2018-11-05T11:51:07.027Z,14.70
2018-11-05T11:53:35.426Z,14.90
2018-11-05T11:56:03.582Z,15.73
2018-11-05T11:58:32.106Z,15.83
2018-11-05T12:01:00.549Z,15.07
2018-11-05T12:03:28.841Z,13.50
2018-11-05T12:05:57.170Z,14.60
2018-11-05T12:08:25.696Z,13.17
2018-11-05T12:10:53.997Z,13.77
2018-11-05T12:13:22.268Z,11.20
2018-11-05T12:15:50.565Z,11.90
2018-11-05T12:18:18.807Z,13.90
2018-11-05T12:20:47.104Z,13.83
2018-11-05T12:23:15.376Z,13.70
2018-11-05T12:25:43.702Z,15.00
2018-11-05T12:28:12.019Z,15.73
2018-11-05T12:30:40.411Z,13.70
2018-11-05T12:33:08.712Z,16.37
2018-11-05T12:35:37.128Z,21.90
2018-11-05T12:38:06.003Z,16.57
2018-11-05T12:40:34.331Z,13.97
2018-11-05T12:43:02.802Z,14.23
2018-11-05T12:45:31.114Z,14.53
2018-11-05T12:47:59.514Z,14.30
2018-11-05T12:50:27.880Z,15.33
2018-11-05T12:52:56.190Z,17.40
2018-11-05T12:55:41.564Z,16.30
2018-11-05T12:58:10.504Z,13.90
2018-11-05T13:00:38.803Z,15.00
2018-11-05T13:03:07.274Z,14.43
2018-11-05T13:05:35.682Z,17.67
2018-11-05T13:08:04.237Z,17.90
2018-11-05T13:10:35.625Z,19.30
2018-11-05T13:13:04.399Z,16.67
2018-11-05T13:15:32.783Z,14.80
2018-11-05T13:18:01.076Z,17.40
2018-11-05T13:20:29.458Z,16.87
2018-11-05T13:22:57.756Z,17.13
2018-11-05T13:25:26.074Z,15.33
2018-11-05T13:27:54.361Z,15.60
2018-11-05T13:30:22.668Z,13.47
2018-11-05T13:32:51.079Z,16.80
2018-11-05T13:35:20.661Z,15.13
2018-11-05T13:37:49.492Z,14.60
2018-11-05T13:40:19.513Z,16.23
2018-11-05T13:42:48.351Z,14.35
2018-11-05T13:45:17.149Z,18.10
2018-11-05T13:47:46.523Z,14.20
2018-11-05T13:50:15.044Z,13.20
2018-11-05T13:52:43.532Z,12.45
2018-11-05T13:55:13.504Z,11.73
2018-11-05T13:57:43.232Z,14.47
2018-11-05T14:00:13.661Z,12.23
2018-11-05T14:02:42.352Z,16.37
2018-11-05T14:05:11.202Z,12.53
2018-11-05T14:07:39.799Z,14.55
2018-11-05T14:10:12.080Z,11.35
2018-11-05T14:12:40.420Z,11.40
2018-11-05T14:15:08.840Z,13.70
2018-11-05T14:17:37.858Z,13.67
2018-11-05T14:20:07.133Z,11.90
2018-11-05T14:22:35.411Z,11.03
2018-11-05T14:25:03.833Z,11.43
2018-11-05T14:27:32.419Z,13.93
2018-11-05T14:30:02.258Z,11.93
2018-11-05T14:32:30.246Z,12.40
2018-11-05T14:34:58.535Z,11.97
2018-11-05T14:37:26.917Z,14.83
2018-11-05T14:39:55.343Z,11.08
2018-11-05T14:42:23.628Z,11.45
2018-11-05T14:44:52.223Z,10.03
2018-11-05T14:47:20.556Z,12.13
2018-11-05T14:49:49.129Z,11.45
2018-11-05T14:52:17.510Z,11.35
2018-11-05T14:54:45.831Z,13.32
2018-11-05T14:57:14.600Z,12.28
2018-11-05T14:59:42.900Z,13.13
2018-11-05T15:02:16.373Z,14.67
2018-11-05T15:04:44.687Z,13.80
2018-11-05T15:07:12.974Z,16.27
2018-11-05T15:09:41.285Z,12.70
2018-11-05T15:12:09.589Z,16.03
2018-11-05T15:14:37.979Z,14.20
2018-11-05T15:17:07.051Z,14.37
2018-11-05T15:19:35.837Z,14.80
2018-11-05T15:22:03.777Z,17.90
2018-11-05T15:24:32.817Z,14.93
2018-11-05T15:27:01.168Z,15.37
2018-11-05T15:29:29.575Z,15.70
2018-11-05T15:31:57.868Z,16.77
2018-11-05T15:34:26.137Z,18.07
2018-11-05T15:36:54.608Z,17.87
2018-11-05T15:39:22.894Z,16.63
2018-11-05T15:41:51.199Z,16.50
2018-11-05T15:44:19.645Z,18.90
2018-11-05T15:46:47.983Z,21.83
2018-11-05T15:49:16.479Z,18.27
2018-11-05T15:51:45.057Z,18.53
2018-11-05T15:54:13.326Z,18.83
2018-11-05T15:56:44.935Z,19.03
2018-11-05T15:59:13.516Z,21.87
2018-11-05T16:01:41.895Z,18.40
2018-11-05T16:04:10.381Z,18.77
2018-11-05T16:06:38.767Z,19.33
2018-11-05T16:09:08.487Z,20.03
2018-11-05T16:11:36.868Z,19.87
2018-11-05T16:14:05.539Z,19.53
2018-11-05T16:16:34.308Z,22.40
2018-11-05T16:19:02.640Z,21.97
2018-11-05T16:21:30.990Z,20.83
2018-11-05T16:23:59.444Z,20.83
2018-11-05T16:26:27.875Z,22.70
2018-11-05T16:28:56.288Z,21.57
2018-11-05T16:31:24.734Z,24.67
2018-11-05T16:33:53.012Z,23.93
2018-11-05T16:36:21.494Z,22.53
2018-11-05T16:38:49.790Z,25.93
2018-11-05T16:41:18.069Z,26.27
2018-11-05T16:43:46.898Z,28.40
2018-11-05T16:46:15.327Z,24.83
2018-11-05T16:48:43.572Z,23.87
2018-11-05T16:51:11.919Z,24.83
2018-11-05T16:53:45.177Z,25.03
2018-11-05T16:56:13.505Z,24.70
2018-11-05T16:58:41.926Z,25.57
2018-11-05T17:01:10.588Z,27.57
2018-11-05T17:03:38.548Z,26.33
2018-11-05T17:06:06.843Z,26.00
2018-11-05T17:08:35.148Z,28.43
2018-11-05T17:11:03.428Z,29.60
2018-11-05T17:13:31.856Z,26.50
2018-11-05T17:16:00.762Z,28.63
2018-11-05T17:18:29.084Z,28.60
2018-11-05T17:20:59.190Z,28.77
2018-11-05T17:23:27.779Z,29.40
2018-11-05T17:25:56.185Z,33.30
2018-11-05T17:28:24.592Z,30.27
2018-11-05T17:30:52.935Z,29.63
2018-11-05T17:33:21.233Z,26.50
2018-11-05T17:35:49.540Z,27.50
2018-11-05T17:38:18.823Z,31.83
2018-11-05T17:40:47.319Z,30.43
2018-11-05T17:43:15.626Z,31.67
2018-11-05T17:45:43.964Z,28.40
2018-11-05T17:48:12.231Z,31.47
2018-11-05T17:50:40.523Z,30.23
2018-11-05T17:53:08.824Z,29.07
2018-11-05T17:55:37.132Z,30.47
2018-11-05T17:58:05.696Z,30.93
2018-11-05T18:00:33.971Z,33.23
2018-11-05T18:03:02.476Z,34.57
2018-11-05T18:05:30.800Z,31.20
2018-11-05T18:07:59.184Z,32.13
2018-11-05T18:10:27.525Z,35.23
2018-11-05T18:12:55.972Z,31.53
2018-11-05T18:15:24.402Z,35.47
2018-11-05T18:17:53.253Z,38.00
2018-11-05T18:20:22.277Z,42.63
2018-11-05T18:22:50.724Z,39.03
2018-11-05T18:25:20.008Z,38.10
2018-11-05T18:27:48.411Z,37.10
2018-11-05T18:30:17.978Z,38.77
2018-11-05T18:32:46.387Z,40.53
2018-11-05T18:35:15.371Z,39.73
2018-11-05T18:37:45.027Z,42.17
2018-11-05T18:40:14.560Z,38.27
2018-11-05T18:42:43.483Z,37.70
2018-11-05T18:45:12.174Z,39.40
2018-11-05T18:47:40.491Z,37.20
2018-11-05T18:50:10.732Z,40.80
2018-11-05T18:52:39.007Z,39.07
2018-11-05T18:55:08.962Z,43.20
2018-11-05T18:57:37.766Z,41.37
2018-11-05T19:00:10.548Z,38.17
2018-11-05T19:02:38.939Z,40.90
2018-11-05T19:05:07.221Z,40.07
2018-11-05T19:07:35.576Z,36.50
2018-11-05T19:10:03.894Z,41.50
2018-11-05T19:12:32.505Z,37.90
2018-11-05T19:15:00.841Z,33.27
2018-11-05T19:17:29.109Z,34.50
2018-11-05T19:19:57.644Z,39.47
2018-11-05T19:22:26.073Z,37.37
2018-11-05T19:24:54.290Z,35.07
2018-11-05T19:27:22.606Z,37.93
2018-11-05T19:29:51.724Z,36.43
2018-11-05T19:32:20.064Z,40.33
2018-11-05T19:34:48.554Z,37.40
2018-11-05T19:37:16.902Z,40.17
2018-11-05T19:39:45.437Z,39.33
2018-11-05T19:42:13.801Z,37.90
2018-11-05T19:44:42.196Z,40.97
2018-11-05T19:47:10.487Z,42.07
2018-11-05T19:49:38.954Z,42.87
2018-11-05T19:52:07.231Z,40.23
2018-11-05T19:54:35.710Z,43.80
2018-11-05T19:57:04.997Z,40.03
2018-11-05T19:59:33.289Z,40.43
2018-11-05T20:02:01.679Z,42.67
2018-11-05T20:04:30.193Z,43.03
2018-11-05T20:07:00.598Z,40.67
2018-11-05T20:09:28.964Z,45.53
2018-11-05T20:11:57.372Z,39.43
2018-11-05T20:14:25.775Z,43.53
2018-11-05T20:16:54.070Z,38.53
2018-11-05T20:19:22.491Z,43.33
2018-11-05T20:21:50.768Z,39.90
2018-11-05T20:24:19.091Z,44.17
2018-11-05T20:26:47.414Z,45.73
2018-11-05T20:29:17.713Z,43.07
2018-11-05T20:31:46.468Z,46.93
2018-11-05T20:34:15.015Z,45.77
2018-11-05T20:36:43.009Z,45.13
2018-11-05T20:39:12.083Z,42.87
2018-11-05T20:41:40.738Z,44.70
2018-11-05T20:44:10.144Z,45.20
2018-11-05T20:46:43.278Z,41.70
2018-11-05T20:49:11.588Z,41.57
2018-11-05T20:51:39.908Z,40.43
2018-11-05T20:54:08.252Z,43.33
2018-11-05T20:56:36.610Z,44.30
2018-11-05T20:59:05.060Z,42.50
2018-11-05T21:01:34.093Z,44.50
2018-11-05T21:04:02.380Z,43.70
2018-11-05T21:06:30.659Z,41.07
2018-11-05T21:08:59.070Z,42.63
2018-11-05T21:11:27.374Z,41.73
2018-11-05T21:13:56.010Z,44.00
2018-11-05T21:16:24.907Z,53.53
2018-11-05T21:18:53.179Z,42.17
2018-11-05T21:21:21.569Z,43.43
2018-11-05T21:23:49.770Z,45.63
2018-11-05T21:26:18.107Z,44.17
2018-11-05T21:28:46.428Z,43.27
2018-11-05T21:31:14.752Z,45.53
2018-11-05T21:33:46.640Z,41.57
2018-11-05T21:36:15.069Z,41.03
2018-11-05T21:38:43.406Z,38.57
2018-11-05T21:41:11.676Z,41.77
2018-11-05T21:43:40.112Z,40.67
2018-11-05T21:46:09.308Z,40.43
2018-11-05T21:48:39.143Z,44.53
2018-11-05T21:51:07.450Z,47.70
2018-11-05T21:53:35.844Z,49.73
2018-11-05T21:56:04.195Z,47.37
2018-11-05T21:58:32.541Z,46.43
2018-11-05T22:01:00.813Z,45.37
2018-11-05T22:03:29.275Z,47.67
2018-11-05T22:05:57.496Z,43.00
2018-11-05T22:08:28.624Z,37.53
2018-11-05T22:10:56.990Z,41.67
2018-11-05T22:13:25.285Z,41.90
2018-11-05T22:15:53.718Z,42.17
2018-11-05T22:18:22.984Z,41.67
2018-11-05T22:20:51.271Z,43.57
2018-11-05T22:23:19.720Z,41.93
2018-11-05T22:25:48.116Z,38.43
2018-11-05T22:28:16.545Z,37.20
2018-11-05T22:30:45.114Z,35.63
2018-11-05T22:33:13.494Z,40.30
2018-11-05T22:35:41.857Z,35.17
2018-11-05T22:38:10.123Z,35.10
2018-11-05T22:40:38.468Z,36.93
2018-11-05T22:43:06.736Z,41.53
2018-11-05T22:45:35.246Z,41.53
2018-11-05T22:48:03.571Z,39.93
2018-11-05T22:50:31.987Z,42.30
2018-11-05T22:53:00.150Z,50.50
2018-11-05T22:55:28.462Z,43.47
2018-11-05T22:57:56.764Z,39.40
2018-11-05T23:00:30.472Z,42.27
2018-11-05T23:03:04.120Z,41.97
2018-11-05T23:05:32.446Z,37.03
2018-11-05T23:08:00.795Z,36.83
2018-11-05T23:10:29.125Z,35.30
2018-11-05T23:12:57.513Z,40.00
2018-11-05T23:15:25.788Z,34.97
2018-11-05T23:17:54.149Z,40.03
2018-11-05T23:20:22.411Z,37.70
2018-11-05T23:22:50.770Z,39.87
2018-11-05T23:25:19.920Z,38.53
2018-11-05T23:27:48.210Z,48.60
2018-11-05T23:30:16.509Z,42.07
2018-11-05T23:32:44.779Z,43.30
2018-11-05T23:35:13.055Z,40.97
2018-11-05T23:37:42.010Z,44.63
2018-11-05T23:40:10.487Z,42.67
2018-11-05T23:42:39.361Z,41.03
2018-11-05T23:45:10.000Z,38.73
2018-11-05T23:47:38.549Z,39.93
2018-11-05T23:50:07.260Z,46.07
2018-11-05T23:52:35.744Z,40.37
2018-11-05T23:55:04.127Z,38.93
2018-11-05T23:57:32.591Z,36.77
